Time;durP1;ratioP1;P1;durP2;ratioP2;P2;SDS_P1;SDS_P2;PMS_P1;PMS_P2;Temp;Humidity;BMP_temperature;BMP_pressure;BME280_temperature;BME280_humidity;BME280_pressure;Samples;Min_cycle;Max_cycle;Signal;HPM_P1;HPM_P2
2021/07/02 00:01:42;;;;;;;14.05;8.35;;;;;;;15.61;100.00;100555.69;5077384;28;20052;-70
2021/07/02 00:04:09;;;;;;;11.23;8.10;;;;;;;15.57;100.00;100551.59;5074103;28;20045;-70
2021/07/02 00:06:37;;;;;;;15.18;9.38;;;;;;;15.56;100.00;100557.88;5073311;28;20552;-68
2021/07/02 00:09:04;;;;;;;16.85;9.25;;;;;;;15.67;100.00;100560.56;5076116;28;20062;-70
2021/07/02 00:11:31;;;;;;;15.40;11.32;;;;;;;15.67;100.00;100559.72;5071280;28;20063;-69
2021/07/02 00:13:59;;;;;;;15.13;11.20;;;;;;;15.69;100.00;100557.78;5080645;28;20132;-69
2021/07/02 00:16:26;;;;;;;13.05;10.30;;;;;;;15.74;100.00;100562.72;5052509;28;20543;-68
2021/07/02 00:18:54;;;;;;;17.10;12.02;;;;;;;15.72;100.00;100562.00;5079264;28;20418;-69
2021/07/02 00:21:21;;;;;;;18.52;13.07;;;;;;;15.74;100.00;100560.06;5070615;28;20059;-70
2021/07/02 00:23:48;;;;;;;20.25;13.80;;;;;;;15.72;100.00;100564.66;5055008;28;20028;-69
2021/07/02 00:26:16;;;;;;;20.73;13.35;;;;;;;15.72;100.00;100554.03;5072706;28;20075;-69
2021/07/02 00:28:43;;;;;;;22.00;14.60;;;;;;;15.71;100.00;100553.16;5073990;28;20090;-69
2021/07/02 00:31:11;;;;;;;16.70;12.80;;;;;;;15.76;100.00;100551.00;5055792;28;20058;-69
2021/07/02 00:33:38;;;;;;;20.90;15.90;;;;;;;15.75;100.00;100556.41;5067563;28;20063;-69
2021/07/02 00:36:06;;;;;;;20.88;14.75;;;;;;;15.80;100.00;100549.75;5069492;28;20048;-70
2021/07/02 00:38:34;;;;;;;24.25;16.02;;;;;;;15.70;100.00;100554.97;5062938;28;20062;-69
2021/07/02 00:41:01;;;;;;;17.85;13.57;;;;;;;15.75;100.00;100549.28;5077524;28;20063;-69
2021/07/02 00:43:29;;;;;;;24.45;15.43;;;;;;;15.83;100.00;100554.00;5077974;28;20453;-69
2021/07/02 00:45:56;;;;;;;29.65;17.08;;;;;;;15.77;100.00;100560.66;5049440;28;20171;-69
2021/07/02 00:48:23;;;;;;;28.15;17.20;;;;;;;15.67;100.00;100557.91;5061354;28;20048;-68
2021/07/02 00:50:51;;;;;;;29.02;18.10;;;;;;;15.71;100.00;100558.47;5073767;28;20074;-70
2021/07/02 00:53:18;;;;;;;28.60;18.23;;;;;;;15.73;100.00;100556.56;5082833;28;20422;-70
2021/07/02 00:55:48;;;;;;;32.00;18.85;;;;;;;15.71;100.00;100555.81;5052630;28;20052;-69
2021/07/02 00:58:16;;;;;;;32.80;20.52;;;;;;;15.77;100.00;100560.66;5075065;28;20350;-68
2021/07/02 01:00:44;;;;;;;31.90;18.50;;;;;;;15.78;100.00;100551.72;5045770;28;20058;-69
2021/07/02 01:03:11;;;;;;;32.97;19.88;;;;;;;15.76;100.00;100544.84;5058714;28;20047;-70
2021/07/02 01:05:38;;;;;;;38.03;20.42;;;;;;;15.84;100.00;100551.19;5081356;28;20048;-71
2021/07/02 01:08:06;;;;;;;33.78;21.17;;;;;;;15.77;100.00;100541.22;5071785;28;20064;-72
2021/07/02 01:10:33;;;;;;;38.80;22.23;;;;;;;15.71;100.00;100547.84;5078693;28;20155;-68
2021/07/02 01:13:00;;;;;;;38.25;22.15;;;;;;;15.90;100.00;100550.72;5061576;28;20052;-68
2021/07/02 01:15:28;;;;;;;40.60;24.00;;;;;;;15.92;100.00;100545.25;5073505;28;20066;-69
2021/07/02 01:17:56;;;;;;;36.60;21.25;;;;;;;15.94;100.00;100548.66;5060061;28;20048;-69
2021/07/02 01:20:23;;;;;;;40.00;22.15;;;;;;;15.92;100.00;100542.63;5081145;28;20048;-70
2021/07/02 01:22:50;;;;;;;45.35;24.08;;;;;;;15.83;100.00;100543.38;5046980;28;20049;-69
2021/07/02 01:25:18;;;;;;;41.40;24.17;;;;;;;15.93;100.00;100538.97;5066355;28;20573;-68
2021/07/02 01:27:45;;;;;;;55.33;26.10;;;;;;;15.88;100.00;100542.00;5075449;28;20051;-68
2021/07/02 01:30:13;;;;;;;51.63;25.25;;;;;;;15.82;100.00;100537.22;5059479;28;20062;-70
2021/07/02 01:32:40;;;;;;;44.50;26.15;;;;;;;15.85;100.00;100536.09;5065794;28;20424;-69
2021/07/02 01:35:08;;;;;;;46.88;25.95;;;;;;;15.83;100.00;100538.06;5064939;28;20055;-69
2021/07/02 01:37:36;;;;;;;46.42;25.75;;;;;;;15.88;100.00;100543.84;5068847;28;20052;-69
2021/07/02 01:40:04;;;;;;;50.17;28.27;;;;;;;15.90;100.00;100539.25;5064455;28;20119;-69
2021/07/02 01:42:31;;;;;;;51.25;26.38;;;;;;;15.83;100.00;100538.91;5065461;28;20062;-69
2021/07/02 01:44:59;;;;;;;60.80;30.38;;;;;;;15.85;100.00;100544.06;5064015;28;20044;-70
2021/07/02 01:47:26;;;;;;;46.13;26.70;;;;;;;15.87;100.00;100543.00;5062159;28;20049;-70
2021/07/02 01:49:54;;;;;;;48.83;27.25;;;;;;;15.92;100.00;100545.25;5065039;28;20044;-67
2021/07/02 01:52:21;;;;;;;47.90;26.90;;;;;;;15.95;100.00;100543.22;5050355;28;20144;-68
2021/07/02 01:54:48;;;;;;;52.13;28.05;;;;;;;15.98;100.00;100536.78;5065090;28;20058;-69
2021/07/02 01:57:26;;;;;;;53.35;27.23;;;;;;;15.97;100.00;100544.88;5065067;28;20047;-70
2021/07/02 01:59:54;;;;;;;58.80;29.40;;;;;;;15.97;100.00;100545.72;5046872;28;20059;-70
2021/07/02 02:02:22;;;;;;;54.78;26.70;;;;;;;16.01;100.00;100541.00;5047416;28;20048;-70
2021/07/02 02:04:49;;;;;;;49.47;28.08;;;;;;;16.14;100.00;100536.38;5047301;28;20059;-71
2021/07/02 02:07:17;;;;;;;49.13;28.25;;;;;;;16.13;100.00;100545.31;5049700;28;20045;-69
2021/07/02 02:09:44;;;;;;;58.83;31.13;;;;;;;16.04;100.00;100549.56;5045477;28;20052;-68
2021/07/02 02:12:12;;;;;;;57.22;29.75;;;;;;;16.04;100.00;100551.38;5063871;28;20513;-69
2021/07/02 02:14:39;;;;;;;55.90;28.73;;;;;;;16.10;100.00;100543.75;5046570;28;20063;-69
2021/07/02 02:17:07;;;;;;;52.10;28.70;;;;;;;16.04;100.00;100552.22;5044617;28;20045;-71
2021/07/02 02:19:34;;;;;;;59.33;30.52;;;;;;;16.06;100.00;100550.28;5064156;28;20048;-69
2021/07/02 02:22:02;;;;;;;53.00;29.90;;;;;;;16.07;100.00;100559.06;5068081;28;20056;-69
2021/07/02 02:24:30;;;;;;;52.72;29.20;;;;;;;16.25;100.00;100554.03;5064210;28;20060;-70
2021/07/02 02:26:57;;;;;;;50.58;29.30;;;;;;;16.17;100.00;100549.41;5066929;28;20050;-69
2021/07/02 02:29:25;;;;;;;54.90;31.38;;;;;;;16.13;100.00;100546.16;5046154;28;20047;-68
2021/07/02 02:31:52;;;;;;;69.78;32.95;;;;;;;16.08;100.00;100551.00;5064252;28;20044;-69
2021/07/02 02:34:20;;;;;;;51.78;29.73;;;;;;;16.20;100.00;100552.63;5058554;28;20557;-69
2021/07/02 02:36:47;;;;;;;55.42;33.25;;;;;;;16.32;100.00;100549.91;5028876;28;20507;-69
2021/07/02 02:39:15;;;;;;;54.45;31.25;;;;;;;16.29;100.00;100551.00;5064833;28;20045;-70
2021/07/02 02:41:42;;;;;;;43.38;28.88;;;;;;;16.31;100.00;100550.91;5066851;28;20094;-69
2021/07/02 02:44:09;;;;;;;55.38;29.77;;;;;;;16.42;100.00;100554.31;5063141;28;20056;-69
2021/07/02 02:46:37;;;;;;;47.47;31.00;;;;;;;16.41;100.00;100557.09;5067268;28;20385;-69
2021/07/02 02:49:04;;;;;;;50.22;30.55;;;;;;;16.28;100.00;100565.25;5047552;28;20052;-70
2021/07/02 02:51:32;;;;;;;52.63;30.73;;;;;;;16.23;100.00;100570.13;5045918;28;20049;-68
2021/07/02 02:53:59;;;;;;;57.53;33.17;;;;;;;16.34;100.00;100571.88;5048218;28;20587;-71
2021/07/02 02:56:26;;;;;;;40.88;27.45;;;;;;;16.30;100.00;100573.09;5064339;28;20100;-68
2021/07/02 02:58:54;;;;;;;47.10;27.55;;;;;;;16.48;100.00;100570.69;5032249;28;20059;-70
2021/07/02 03:01:21;;;;;;;44.42;28.02;;;;;;;16.44;100.00;100575.47;5066035;28;20048;-70
2021/07/02 03:03:49;;;;;;;36.33;23.65;;;;;;;16.44;100.00;100576.31;5077803;28;20559;-68
2021/07/02 03:06:16;;;;;;;41.08;24.10;;;;;;;16.59;100.00;100570.66;5070878;28;20116;-69
2021/07/02 03:08:43;;;;;;;39.42;25.63;;;;;;;16.35;100.00;100565.59;5079358;28;20052;-69
2021/07/02 03:11:11;;;;;;;36.70;26.05;;;;;;;16.39;100.00;100562.56;5053677;28;20630;-70
2021/07/02 03:13:38;;;;;;;31.77;23.13;;;;;;;16.44;100.00;100565.66;5073245;28;20052;-69
2021/07/02 03:16:06;;;;;;;27.27;19.55;;;;;;;16.53;100.00;100564.06;5062314;28;20403;-71
2021/07/02 03:18:33;;;;;;;33.30;19.17;;;;;;;16.55;100.00;100569.22;5075478;28;20695;-69
2021/07/02 03:21:00;;;;;;;27.55;19.77;;;;;;;16.58;100.00;100569.81;5071432;28;20055;-70
2021/07/02 03:23:28;;;;;;;29.90;18.60;;;;;;;16.54;100.00;100568.38;5064158;28;20066;-70
2021/07/02 03:25:55;;;;;;;27.58;19.80;;;;;;;16.52;100.00;100567.66;5068529;28;20066;-70
2021/07/02 03:28:22;;;;;;;24.27;17.80;;;;;;;16.55;100.00;100567.41;5071466;28;20040;-69
2021/07/02 03:30:50;;;;;;;24.02;18.60;;;;;;;16.60;100.00;100575.81;5076394;28;20064;-70
2021/07/02 03:33:17;;;;;;;27.23;17.42;;;;;;;16.60;100.00;100572.34;5066463;28;20057;-71
2021/07/02 03:35:44;;;;;;;25.75;17.20;;;;;;;16.52;100.00;100578.28;5050451;28;20093;-69
2021/07/02 03:38:12;;;;;;;22.80;17.67;;;;;;;16.50;100.00;100574.94;5069435;28;20045;-69
2021/07/02 03:40:39;;;;;;;21.10;18.38;;;;;;;16.52;100.00;100570.31;5066246;28;20056;-70
2021/07/02 03:43:06;;;;;;;22.05;15.02;;;;;;;16.50;100.00;100574.09;5044374;28;20049;-70
2021/07/02 03:45:34;;;;;;;20.25;15.77;;;;;;;16.67;100.00;100578.81;5069257;28;20055;-69
2021/07/02 03:48:01;;;;;;;25.10;15.93;;;;;;;16.78;100.00;100576.09;5070113;28;20041;-69
2021/07/02 03:50:29;;;;;;;25.40;14.88;;;;;;;16.90;100.00;100580.38;5064653;28;20044;-70
2021/07/02 03:52:56;;;;;;;18.58;14.27;;;;;;;16.84;100.00;100586.25;5070329;28;20067;-68
2021/07/02 03:55:24;;;;;;;21.88;13.65;;;;;;;16.90;100.00;100584.84;5066759;28;20049;-69
2021/07/02 03:57:51;;;;;;;15.90;12.32;;;;;;;16.91;100.00;100584.72;5067184;28;20053;-71
2021/07/02 04:00:18;;;;;;;18.98;13.88;;;;;;;17.07;100.00;100594.88;5066005;28;20048;-69
2021/07/02 04:02:46;;;;;;;16.52;12.20;;;;;;;17.10;100.00;100591.09;5070508;28;20052;-69
2021/07/02 04:05:13;;;;;;;18.15;13.13;;;;;;;17.05;100.00;100588.84;5066746;28;20052;-69
2021/07/02 04:07:41;;;;;;;22.35;13.15;;;;;;;17.07;100.00;100589.56;5066831;28;20142;-68
2021/07/02 04:10:08;;;;;;;17.83;12.52;;;;;;;17.11;100.00;100591.00;5063559;28;20054;-69
2021/07/02 04:12:35;;;;;;;22.92;12.52;;;;;;;17.14;100.00;100592.53;5049069;28;20503;-69
2021/07/02 04:15:08;;;;;;;16.40;12.48;;;;;;;17.21;100.00;100594.53;5065853;28;20535;-70
2021/07/02 04:17:38;;;;;;;14.70;12.27;;;;;;;17.33;100.00;100597.91;5052493;28;20051;-70
2021/07/02 04:20:08;;;;;;;15.18;11.63;;;;;;;17.46;100.00;100600.34;5065775;28;20044;-70
2021/07/02 04:22:37;;;;;;;13.65;10.63;;;;;;;17.37;100.00;100601.16;5070295;28;20661;-70
2021/07/02 04:25:09;;;;;;;14.10;10.02;;;;;;;17.41;100.00;100606.06;5047023;28;20074;-70
2021/07/02 04:27:38;;;;;;;25.65;12.82;;;;;;;17.20;100.00;100610.59;5059726;28;20058;-69
2021/07/02 04:30:08;;;;;;;16.80;12.40;;;;;;;17.17;100.00;100613.53;5048098;28;20414;-70
2021/07/02 04:32:36;;;;;;;16.38;12.75;;;;;;;17.09;100.00;100610.69;5065497;28;20057;-69
2021/07/02 04:35:05;;;;;;;18.70;12.15;;;;;;;17.04;100.00;100621.75;5046505;28;20333;-69
2021/07/02 04:37:32;;;;;;;22.00;12.27;;;;;;;17.16;100.00;100619.84;5051502;28;20059;-69
2021/07/02 04:40:01;;;;;;;16.55;11.02;;;;;;;17.26;100.00;100622.56;5065542;28;20076;-69
2021/07/02 04:42:28;;;;;;;14.05;10.77;;;;;;;17.38;100.00;100616.13;5035181;28;20058;-69
2021/07/02 04:44:55;;;;;;;15.20;10.93;;;;;;;17.36;100.00;100615.44;5061705;28;20057;-70
2021/07/02 04:47:23;;;;;;;13.68;10.98;;;;;;;17.40;100.00;100617.69;5046269;28;20049;-70
2021/07/02 04:49:50;;;;;;;14.70;10.05;;;;;;;17.52;100.00;100615.78;5066480;28;20047;-70
2021/07/02 04:52:21;;;;;;;14.85;10.48;;;;;;;17.71;100.00;100621.16;5059847;28;20074;-71
2021/07/02 04:54:48;;;;;;;16.80;11.38;;;;;;;17.77;100.00;100619.78;5066139;28;20060;-70
2021/07/02 04:57:16;;;;;;;16.67;10.65;;;;;;;17.80;100.00;100619.53;5048097;28;20052;-71
2021/07/02 04:59:45;;;;;;;13.77;9.80;;;;;;;17.46;100.00;100638.44;5067092;28;20063;-70
2021/07/02 05:02:13;;;;;;;16.30;11.50;;;;;;;17.42;100.00;100633.53;5065356;28;20078;-69
2021/07/02 05:04:40;;;;;;;13.88;10.48;;;;;;;17.36;100.00;100634.06;5066046;28;20067;-68
2021/07/02 05:07:08;;;;;;;14.15;10.90;;;;;;;17.40;100.00;100638.16;5067010;28;20049;-71
2021/07/02 05:09:35;;;;;;;18.80;11.60;;;;;;;17.40;100.00;100640.81;5064631;28;20059;-70
2021/07/02 05:12:03;;;;;;;15.65;11.20;;;;;;;17.39;100.00;100639.13;5066022;28;20511;-71
2021/07/02 05:14:33;;;;;;;18.33;10.95;;;;;;;17.34;100.00;100641.34;5064781;28;20064;-69
2021/07/02 05:17:04;;;;;;;16.98;11.00;;;;;;;17.24;100.00;100643.94;5065656;28;20049;-69
2021/07/02 05:19:32;;;;;;;13.85;10.52;;;;;;;17.27;100.00;100643.69;5045663;28;20514;-68
2021/07/02 05:21:59;;;;;;;18.13;11.35;;;;;;;17.32;100.00;100654.78;5065803;28;20048;-69
2021/07/02 05:24:27;;;;;;;17.33;11.48;;;;;;;17.35;100.00;100648.34;5047077;28;20049;-69
2021/07/02 05:26:54;;;;;;;20.67;11.00;;;;;;;17.39;100.00;100653.28;5062767;28;20667;-69
2021/07/02 05:29:21;;;;;;;14.02;10.93;;;;;;;17.52;100.00;100653.06;5053532;28;20511;-71
2021/07/02 05:31:49;;;;;;;16.70;11.35;;;;;;;17.69;100.00;100655.03;5073459;28;20515;-70
2021/07/02 05:34:16;;;;;;;14.68;10.05;;;;;;;17.75;100.00;100656.38;5062534;28;20052;-71
2021/07/02 05:36:44;;;;;;;21.58;11.65;;;;;;;17.71;100.00;100654.94;5063414;28;20062;-70
2021/07/02 05:39:11;;;;;;;14.05;10.63;;;;;;;17.78;100.00;100661.41;5067404;28;20052;-70
2021/07/02 05:41:38;;;;;;;12.20;9.05;;;;;;;17.92;100.00;100671.72;5051402;28;20048;-71
2021/07/02 05:44:06;;;;;;;19.38;9.38;;;;;;;18.07;99.51;100668.66;5067177;28;20052;-75
2021/07/02 05:46:33;;;;;;;17.58;10.57;;;;;;;18.33;97.88;100669.81;5069089;28;20079;-72
2021/07/02 05:49:03;;;;;;;16.58;9.80;;;;;;;19.14;93.74;100662.31;5052763;28;20056;-73
2021/07/02 05:51:30;;;;;;;14.82;9.43;;;;;;;19.46;88.15;100669.94;5074594;28;20131;-70
2021/07/02 05:53:58;;;;;;;14.65;9.05;;;;;;;19.81;86.77;100670.19;5065872;28;20055;-71
2021/07/02 05:56:28;;;;;;;13.45;9.40;;;;;;;20.88;80.35;100668.44;5070429;28;20440;-70
2021/07/02 05:58:56;;;;;;;13.27;8.45;;;;;;;21.13;78.41;100668.59;5071273;28;20075;-69
2021/07/02 06:01:24;;;;;;;11.40;9.63;;;;;;;20.11;81.46;100672.56;5051855;28;20055;-68
2021/07/02 06:03:52;;;;;;;14.13;8.98;;;;;;;19.66;84.17;100675.22;5062715;28;20052;-70
2021/07/02 06:06:20;;;;;;;13.00;8.75;;;;;;;19.57;86.02;100676.91;5064246;28;20052;-70
2021/07/02 06:08:49;;;;;;;12.05;9.75;;;;;;;19.31;86.88;100675.88;5050871;28;20062;-70
2021/07/02 06:11:17;;;;;;;14.25;9.07;;;;;;;18.94;89.34;100674.84;5067385;28;20055;-71
2021/07/02 06:13:44;;;;;;;15.15;8.60;;;;;;;19.05;89.44;100678.31;5072993;28;20104;-69
2021/07/02 06:16:12;;;;;;;14.93;9.60;;;;;;;18.62;90.89;100676.97;5070830;28;20469;-69
2021/07/02 06:18:39;;;;;;;14.52;9.35;;;;;;;19.16;88.47;100676.34;5048847;28;20041;-70
2021/07/02 06:21:06;;;;;;;13.18;8.82;;;;;;;19.21;87.70;100671.41;5065087;28;20056;-69
2021/07/02 06:23:35;;;;;;;11.25;8.18;;;;;;;19.49;86.40;100682.13;5071433;28;20122;-69
2021/07/02 06:26:04;;;;;;;14.63;8.52;;;;;;;19.41;85.91;100679.38;5072052;28;20234;-70
2021/07/02 06:28:31;;;;;;;14.82;8.25;;;;;;;20.71;79.93;100682.66;5048906;28;20053;-69
2021/07/02 06:30:59;;;;;;;10.93;7.55;;;;;;;21.46;75.48;100678.53;5065821;28;20048;-71
2021/07/02 06:33:31;;;;;;;11.18;7.43;;;;;;;21.47;75.13;100674.00;5050068;28;20663;-69
2021/07/02 06:35:58;;;;;;;11.82;7.43;;;;;;;21.44;75.66;100674.34;5064073;28;20055;-69
2021/07/02 06:38:26;;;;;;;9.60;7.47;;;;;;;21.05;76.23;100669.38;5063276;28;20059;-69
2021/07/02 06:40:53;;;;;;;17.40;8.73;;;;;;;20.31;78.79;100669.72;5049095;28;20511;-70
2021/07/02 06:43:20;;;;;;;19.50;10.10;;;;;;;19.99;81.13;100676.41;5053128;28;20044;-70
2021/07/02 06:45:48;;;;;;;18.42;8.95;;;;;;;19.87;81.91;100677.63;5068312;28;20052;-70
2021/07/02 06:48:15;;;;;;;15.95;8.20;;;;;;;19.66;84.07;100676.03;5066070;28;20044;-69
2021/07/02 06:50:44;;;;;;;24.42;10.05;;;;;;;19.55;85.08;100678.88;5029000;28;20064;-70
2021/07/02 06:53:12;;;;;;;19.27;8.60;;;;;;;19.44;85.60;100676.38;5066354;28;20052;-70
2021/07/02 06:55:40;;;;;;;13.68;8.68;;;;;;;19.45;86.20;100680.72;5062852;28;20811;-70
2021/07/02 06:58:09;;;;;;;14.77;8.57;;;;;;;19.79;82.88;100685.56;5062816;28;20056;-69
2021/07/02 07:00:40;;;;;;;14.70;8.57;;;;;;;20.28;79.41;100694.97;5063755;28;20086;-71
2021/07/02 07:03:07;;;;;;;19.85;7.25;;;;;;;20.78;77.79;100696.28;5063257;28;20056;-70
2021/07/02 07:05:36;;;;;;;11.68;7.10;;;;;;;21.03;77.15;100697.28;5065457;28;20123;-68
2021/07/02 07:08:05;;;;;;;14.05;7.50;;;;;;;21.18;75.94;100703.78;5068398;28;20063;-70
2021/07/02 07:10:32;;;;;;;18.90;7.38;;;;;;;21.71;73.83;100695.56;5050783;28;20059;-68
2021/07/02 07:13:01;;;;;;;15.18;8.02;;;;;;;22.65;68.75;100696.31;5067610;28;20056;-69
2021/07/02 07:15:47;;;;;;;15.07;7.35;;;;;;;22.84;67.70;100701.38;5066629;28;20061;-75
2021/07/02 07:22:05;;;;;;;12.52;5.57;;;;;;;24.62;59.16;100692.00;5046563;28;20064;-69
2021/07/02 07:24:32;;;;;;;12.82;5.88;;;;;;;23.89;60.25;100685.19;5067092;28;20177;-70
2021/07/02 07:27:00;;;;;;;11.30;5.53;;;;;;;24.64;58.25;100685.44;5074091;28;20059;-70
2021/07/02 07:29:27;;;;;;;9.00;5.85;;;;;;;26.09;53.48;100685.91;5064974;28;20051;-71
2021/07/02 07:31:55;;;;;;;10.27;5.90;;;;;;;27.88;47.73;100689.25;5078663;28;20048;-68
2021/07/02 07:37:04;;;;;;;12.68;5.22;;;;;;;28.45;46.32;100690.66;5052137;28;20049;-69
2021/07/02 07:39:32;;;;;;;14.10;5.97;;;;;;;30.16;42.24;100691.47;5058679;28;20062;-69
2021/07/02 07:41:59;;;;;;;12.73;4.95;;;;;;;29.06;43.75;100695.94;5074239;28;20056;-70
2021/07/02 07:44:27;;;;;;;5.60;4.65;;;;;;;29.96;40.25;100696.16;5055823;28;20128;-69
2021/07/02 07:46:55;;;;;;;7.28;4.72;;;;;;;31.19;37.17;100704.72;5068849;28;20055;-69
2021/07/02 07:49:23;;;;;;;16.42;4.32;;;;;;;31.73;36.00;100707.72;5076039;28;20054;-69
2021/07/02 07:52:11;;;;;;;11.82;4.72;;;;;;;32.58;34.80;100701.38;5071596;28;20140;-68
2021/07/02 07:54:39;;;;;;;10.75;4.95;;;;;;;32.44;34.96;100706.22;5056330;28;20059;-70
2021/07/02 07:57:06;;;;;;;8.40;4.30;;;;;;;32.00;36.31;100695.47;5053278;28;20074;-68
2021/07/02 07:59:34;;;;;;;10.63;4.53;;;;;;;32.26;34.77;100698.91;5041414;28;20060;-68
2021/07/02 08:02:02;;;;;;;7.70;4.25;;;;;;;33.20;32.91;100699.09;5070233;28;20053;-68
2021/07/02 08:04:30;;;;;;;11.18;4.97;;;;;;;31.57;35.81;100709.19;5066951;28;20723;-70
2021/07/02 08:06:58;;;;;;;6.40;4.18;;;;;;;29.97;38.92;100709.50;5066928;28;20515;-69
2021/07/02 08:09:26;;;;;;;7.78;4.50;;;;;;;28.87;41.69;100708.44;5066418;28;20049;-68
2021/07/02 08:11:53;;;;;;;8.45;4.97;;;;;;;27.46;44.10;100705.44;5064564;28;20059;-71
2021/07/02 08:14:21;;;;;;;8.27;4.72;;;;;;;27.62;44.74;100709.69;5068797;28;20541;-70
2021/07/02 08:16:48;;;;;;;8.10;4.32;;;;;;;25.06;50.09;100704.75;5071374;28;20063;-69
2021/07/02 08:19:16;;;;;;;7.88;4.43;;;;;;;24.95;51.55;100703.34;5071017;28;20529;-68
2021/07/02 08:21:46;;;;;;;10.63;4.90;;;;;;;25.31;51.00;100700.84;5053676;28;20047;-70
2021/07/02 08:24:14;;;;;;;10.35;4.93;;;;;;;27.45;45.47;100701.06;5069730;28;20053;-70
2021/07/02 08:26:42;;;;;;;5.22;4.40;;;;;;;27.67;43.98;100698.28;5068669;28;20063;-68
2021/07/02 08:29:22;;;;;;;6.18;4.80;;;;;;;26.75;45.09;100700.13;5068920;28;20054;-70
2021/07/02 08:31:56;;;;;;;5.40;4.20;;;;;;;28.69;40.37;100706.34;5070109;28;20040;-70
2021/07/02 08:34:23;;;;;;;13.52;4.50;;;;;;;28.65;41.06;100699.66;5042125;28;20049;-69
2021/07/02 08:36:51;;;;;;;8.77;4.30;;;;;;;27.16;42.63;100707.53;5061056;28;20063;-69
2021/07/02 08:39:18;;;;;;;6.50;4.28;;;;;;;26.70;45.00;100699.00;5069397;28;20056;-70
2021/07/02 08:41:46;;;;;;;10.45;5.60;;;;;;;25.74;47.45;100703.69;5064853;28;20045;-70
2021/07/02 08:44:13;;;;;;;10.73;5.32;;;;;;;25.51;48.75;100699.25;5070747;28;20769;-68
2021/07/02 08:46:43;;;;;;;12.20;4.93;;;;;;;25.58;48.23;100703.88;5064459;28;20573;-70
2021/07/02 08:49:28;;;;;;;7.82;5.05;;;;;;;25.27;49.01;100698.69;5061746;28;20055;-70
2021/07/02 08:51:56;;;;;;;11.93;5.60;;;;;;;25.33;49.38;100716.81;5077694;28;20044;-69
2021/07/02 08:54:33;;;;;;;10.50;4.88;;;;;;;25.69;48.66;100704.25;5069345;28;20044;-68
2021/07/02 08:57:02;;;;;;;11.18;4.88;;;;;;;25.77;47.88;100699.84;5068146;28;20052;-69
2021/07/02 08:59:30;;;;;;;7.50;4.60;;;;;;;25.50;46.25;100700.28;5062742;28;20052;-69
2021/07/02 09:01:57;;;;;;;8.13;4.57;;;;;;;25.42;47.45;100699.53;5069901;28;20054;-68
2021/07/02 09:04:26;;;;;;;7.88;3.63;;;;;;;24.92;47.95;100696.47;5065628;28;20047;-69
2021/07/02 09:07:06;;;;;;;5.85;3.25;;;;;;;23.98;48.38;100700.28;5051195;28;20074;-70
2021/07/02 09:09:47;;;;;;;4.55;3.40;;;;;;;23.72;49.49;100698.69;5032818;28;20062;-68
2021/07/02 09:12:20;;;;;;;4.97;3.90;;;;;;;24.30;50.16;100690.34;5071450;28;21421;-70
2021/07/02 09:15:12;;;;;;;8.45;3.78;;;;;;;24.65;49.33;100697.88;5050207;28;20061;-70
2021/07/02 09:17:45;;;;;;;7.32;4.38;;;;;;;24.53;49.62;100685.00;5038535;28;20064;-69
2021/07/02 09:20:15;;;;;;;8.85;4.60;;;;;;;24.70;50.84;100698.16;5068939;28;20049;-70
2021/07/02 09:22:49;;;;;;;7.05;4.47;;;;;;;25.17;49.92;100694.41;5033214;28;20045;-69
2021/07/02 09:25:36;;;;;;;10.63;5.57;;;;;;;25.40;49.59;100694.34;5067808;28;20069;-71
2021/07/02 09:28:06;;;;;;;8.48;5.10;;;;;;;24.42;51.55;100695.19;5069842;28;20746;-69
2021/07/02 09:30:36;;;;;;;10.15;4.60;;;;;;;24.93;48.18;100690.03;5050074;28;20059;-71
2021/07/02 09:33:06;;;;;;;8.30;4.47;;;;;;;24.60;48.62;100694.88;5051815;28;20448;-70
2021/07/02 09:35:36;;;;;;;7.78;4.10;;;;;;;24.72;48.53;100704.22;5051300;28;20059;-69
2021/07/02 09:38:05;;;;;;;9.77;4.28;;;;;;;25.28;46.95;100703.06;5055741;28;20685;-69
2021/07/02 09:40:35;;;;;;;12.13;4.85;;;;;;;24.65;48.44;100688.94;5048199;28;20048;-68
2021/07/02 09:43:17;;;;;;;10.13;5.00;;;;;;;24.48;49.43;100696.31;5063929;28;20045;-70
2021/07/02 09:45:50;;;;;;;6.82;5.05;;;;;;;24.14;49.85;100685.91;5046648;28;20052;-71
2021/07/02 09:48:19;;;;;;;9.85;4.80;;;;;;;24.34;49.02;100689.81;5065950;28;20044;-69
2021/07/02 09:50:50;;;;;;;6.70;4.80;;;;;;;24.30;48.91;100688.50;5069896;28;20062;-68
2021/07/02 09:53:24;;;;;;;9.85;4.90;;;;;;;23.90;49.43;100700.31;5078895;28;20047;-70
2021/07/02 09:55:53;;;;;;;6.17;5.30;;;;;;;24.50;49.55;100696.97;5052391;28;20063;-70
2021/07/02 09:58:27;;;;;;;8.35;4.88;;;;;;;25.36;48.47;100689.50;5045779;28;20048;-69
2021/07/02 10:00:56;;;;;;;6.60;5.05;;;;;;;25.77;47.21;100694.44;5059428;28;20564;-69
2021/07/02 10:03:25;;;;;;;22.52;6.30;;;;;;;25.22;47.78;100705.47;5060189;28;20426;-69
2021/07/02 10:06:03;;;;;;;10.38;5.95;;;;;;;24.88;49.56;100694.31;5064621;28;20064;-69
2021/07/02 10:08:35;;;;;;;9.65;5.82;;;;;;;25.22;48.14;100697.38;5023788;28;20529;-70
2021/07/02 10:11:05;;;;;;;6.88;5.32;;;;;;;25.84;46.87;100693.47;5066333;28;20048;-69
2021/07/02 10:13:36;;;;;;;6.13;4.95;;;;;;;26.17;44.91;100696.59;5047979;28;20058;-70
2021/07/02 10:16:06;;;;;;;7.30;5.25;;;;;;;25.73;46.18;100696.63;5063000;28;20056;-70
2021/07/02 10:18:44;;;;;;;8.85;5.63;;;;;;;25.20;48.30;100699.41;5063835;28;20057;-70
2021/07/02 10:21:14;;;;;;;6.53;5.00;;;;;;;25.28;48.61;100709.28;5044494;28;20067;-69
2021/07/02 10:23:44;;;;;;;7.93;5.20;;;;;;;25.64;48.11;100698.59;5066574;28;20078;-68
2021/07/02 10:26:13;;;;;;;13.00;5.75;;;;;;;25.81;46.76;100699.28;5047284;28;20066;-69
2021/07/02 10:28:41;;;;;;;7.25;5.03;;;;;;;25.52;46.81;100702.78;5048159;28;20055;-69
2021/07/02 10:31:10;;;;;;;8.85;5.10;;;;;;;24.55;46.83;100702.66;5048666;28;20151;-70
2021/07/02 10:33:46;;;;;;;11.10;5.50;;;;;;;24.33;47.70;100701.59;5067383;28;20062;-70
2021/07/02 10:36:15;;;;;;;7.90;5.18;;;;;;;24.76;47.51;100702.81;5044743;28;20059;-69
2021/07/02 10:38:44;;;;;;;15.55;5.90;;;;;;;25.05;48.52;100697.69;5054625;28;20051;-69
2021/07/02 10:41:19;;;;;;;20.10;5.40;;;;;;;25.58;47.17;100683.19;5075746;28;20058;-70
2021/07/02 10:44:07;;;;;;;11.20;4.97;;;;;;;25.87;46.58;100698.50;5081139;28;20056;-69
2021/07/02 10:46:39;;;;;;;7.43;5.35;;;;;;;26.23;45.64;100697.69;5067004;28;20051;-69
2021/07/02 10:49:11;;;;;;;9.00;5.53;;;;;;;26.12;45.83;100700.91;5055145;28;20105;-67
2021/07/02 10:51:43;;;;;;;25.30;14.73;;;;;;;25.61;45.48;100688.19;5062119;28;20054;-70
2021/07/02 10:54:16;;;;;;;7.32;4.82;;;;;;;25.79;44.44;100690.50;5069118;28;20051;-69
2021/07/02 10:56:49;;;;;;;8.13;5.28;;;;;;;25.65;45.41;100694.03;5078008;28;20075;-69
2021/07/02 10:59:17;;;;;;;7.88;4.85;;;;;;;25.69;45.43;100698.03;5065661;28;20059;-69
2021/07/02 11:02:03;;;;;;;8.80;4.70;;;;;;;25.82;44.06;100698.25;5067211;28;20041;-69
2021/07/02 11:04:36;;;;;;;;;;;;;;;25.84;43.63;100698.88;5068370;28;20083;-70
2021/07/02 11:07:12;;;;;;;7.93;4.90;;;;;;;25.37;46.22;100705.47;5066405;28;19924;-70
2021/07/02 11:09:52;;;;;;;8.65;4.72;;;;;;;25.08;46.20;100706.28;5061943;28;20063;-70
2021/07/02 11:12:30;;;;;;;13.70;5.40;;;;;;;24.76;45.77;100715.44;5053352;28;20055;-69
2021/07/02 11:14:58;;;;;;;7.88;4.30;;;;;;;25.08;46.33;100708.13;5067492;28;20055;-69
2021/07/02 11:17:26;;;;;;;7.25;4.35;;;;;;;25.41;45.57;100706.78;5065479;28;22090;-68
2021/07/02 11:20:06;;;;;;;9.60;4.18;;;;;;;25.60;44.01;100709.94;5030108;28;20469;-69
2021/07/02 11:22:57;;;;;;;5.68;4.00;;;;;;;25.87;43.43;100714.69;5073638;28;20056;-69
2021/07/02 11:25:31;;;;;;;6.78;4.80;;;;;;;25.61;44.07;100708.91;5068797;28;20068;-70
2021/07/02 11:28:12;;;;;;;7.00;4.85;;;;;;;25.83;43.65;100707.16;5048651;28;20048;-70